Time;durP1;ratioP1;P1;durP2;ratioP2;P2;SDS_P1;SDS_P2;PMS_P1;PMS_P2;Temp;Humidity;BMP_temperature;BMP_pressure;BME280_temperature;BME280_humidity;BME280_pressure;Samples;Min_cycle;Max_cycle;Signal;HPM_P1;HPM_P2
2022/11/06 00:00:43;;;;;;;37.10;24.55;;;5.30;51.80;;;;;;7386597;19;20018;-69
2022/11/06 00:03:13;;;;;;;35.78;23.15;;;5.20;51.60;;;;;;7363433;19;20470;-69
2022/11/06 00:08:31;;;;;;;34.13;22.23;;;5.20;51.80;;;;;;7364964;19;20034;-69
2022/11/06 00:11:10;;;;;;;35.83;21.95;;;5.20;51.80;;;;;;7364228;19;20067;-69
2022/11/06 00:13:40;;;;;;;34.03;22.08;;;5.20;51.70;;;;;;7365879;19;20025;-69
2022/11/06 00:16:14;;;;;;;35.00;22.70;;;5.20;51.80;;;;;;7364353;19;20014;-69
2022/11/06 00:18:44;;;;;;;32.07;21.47;;;5.20;51.70;;;;;;7386108;19;20014;-68
2022/11/06 00:21:16;;;;;;;32.40;22.10;;;5.20;51.90;;;;;;7364363;19;20038;-69
2022/11/06 00:23:47;;;;;;;36.78;22.55;;;5.30;52.20;;;;;;7364172;19;20733;-69
2022/11/06 00:26:19;;;;;;;31.13;23.17;;;5.40;52.30;;;;;;7364213;19;20061;-69
2022/11/06 00:28:50;;;;;;;35.03;23.48;;;5.30;52.00;;;;;;7364227;19;20063;-68
2022/11/06 00:31:24;;;;;;;33.70;22.02;;;5.30;51.80;;;;;;7368096;19;20087;-69
2022/11/06 00:33:55;;;;;;;34.08;22.92;;;5.30;51.70;;;;;;7364040;19;20022;-69
2022/11/06 00:36:29;;;;;;;32.78;22.05;;;5.20;51.70;;;;;;7385248;19;20018;-69
2022/11/06 00:39:00;;;;;;;35.58;22.63;;;5.20;51.60;;;;;;7367437;19;20482;-68
2022/11/06 00:41:30;;;;;;;30.63;20.50;;;5.10;51.30;;;;;;7363686;19;20010;-68
2022/11/06 00:44:02;;;;;;;31.40;20.77;;;5.10;51.50;;;;;;7363394;19;20109;-70
2022/11/06 00:46:35;;;;;;;31.00;20.75;;;5.10;51.50;;;;;;7362825;19;20014;-68
2022/11/06 00:49:04;;;;;;;30.52;20.85;;;5.10;51.10;;;;;;7367056;19;20015;-68
2022/11/06 00:51:38;;;;;;;31.80;21.98;;;5.00;51.10;;;;;;7385605;19;20617;-69
2022/11/06 00:54:11;;;;;;;29.50;20.95;;;5.10;51.40;;;;;;7363448;19;20042;-69
2022/11/06 00:56:41;;;;;;;31.63;21.38;;;5.00;51.20;;;;;;7361655;19;20019;-69
2022/11/06 00:59:14;;;;;;;31.70;21.58;;;5.00;51.00;;;;;;7363577;19;20115;-70
2022/11/06 01:01:47;;;;;;;30.45;21.50;;;5.00;51.40;;;;;;7364180;19;20018;-70
2022/11/06 01:04:20;;;;;;;32.08;20.98;;;5.00;51.20;;;;;;7361671;19;20018;-70
2022/11/06 01:06:52;;;;;;;32.55;20.95;;;5.00;51.20;;;;;;7361715;19;20015;-70
2022/11/06 01:09:24;;;;;;;32.95;21.48;;;5.00;51.10;;;;;;7384082;19;20018;-70
2022/11/06 01:11:56;;;;;;;31.75;21.58;;;5.00;51.20;;;;;;7363431;19;20419;-68
2022/11/06 01:14:42;;;;;;;31.17;21.70;;;5.00;51.40;;;;;;7363142;19;20488;-68
2022/11/06 01:17:15;;;;;;;32.83;21.90;;;5.00;51.30;;;;;;7360688;19;20014;-69
2022/11/06 01:19:45;;;;;;;31.00;21.35;;;5.00;50.90;;;;;;7362943;19;20022;-69
2022/11/06 01:22:15;;;;;;;31.02;20.73;;;4.90;50.90;;;;;;7363170;19;20077;-70
2022/11/06 01:24:45;;;;;;;31.63;20.92;;;4.90;50.90;;;;;;7384054;19;20018;-70
2022/11/06 01:27:15;;;;;;;32.95;21.63;;;4.80;50.40;;;;;;7364011;19;20490;-68
2022/11/06 01:30:01;;;;;;;35.70;21.42;;;4.80;50.80;;;;;;7362033;19;20010;-69
2022/11/06 01:32:36;;;;;;;30.88;21.20;;;4.80;50.80;;;;;;7362258;19;20121;-68
2022/11/06 01:35:06;;;;;;;32.55;21.08;;;4.70;50.80;;;;;;7362840;19;20118;-70
2022/11/06 01:37:36;;;;;;;29.02;20.25;;;4.70;50.80;;;;;;7359978;19;20011;-69
2022/11/06 01:40:07;;;;;;;30.20;20.13;;;4.70;50.60;;;;;;7362175;19;20040;-69
2022/11/06 01:42:37;;;;;;;34.80;24.25;;;4.60;50.60;;;;;;7386526;19;20010;-69
2022/11/06 01:45:28;;;;;;;30.88;21.08;;;4.50;50.40;;;;;;7361610;19;20007;-69
2022/11/06 01:48:01;;;;;;;29.83;21.50;;;4.40;50.10;;;;;;7360368;19;20011;-69
2022/11/06 01:50:31;;;;;;;33.00;21.13;;;4.40;50.30;;;;;;7361801;19;20307;-68
2022/11/06 01:53:02;;;;;;;28.27;19.98;;;4.30;50.40;;;;;;7360865;19;20082;-69
2022/11/06 01:55:37;;;;;;;31.55;20.33;;;4.30;50.20;;;;;;7360909;19;20478;-68
2022/11/06 01:58:09;;;;;;;33.90;21.48;;;4.30;50.90;;;;;;7360003;19;20004;-70
2022/11/06 02:00:39;;;;;;;32.97;21.90;;;4.40;51.30;;;;;;7383084;19;20014;-70
2022/11/06 02:03:13;;;;;;;34.33;22.33;;;4.40;51.90;;;;;;7360738;19;20017;-70
2022/11/06 02:05:43;;;;;;;32.50;22.83;;;4.50;51.70;;;;;;7360954;19;20015;-69
2022/11/06 02:08:17;;;;;;;32.00;21.77;;;4.50;51.80;;;;;;7360103;19;20010;-69
2022/11/06 02:10:48;;;;;;;36.58;22.20;;;4.50;51.90;;;;;;7361388;19;20014;-70
2022/11/06 02:13:24;;;;;;;34.45;22.65;;;4.50;52.00;;;;;;7361629;19;20022;-69
2022/11/06 02:16:02;;;;;;;31.88;21.15;;;4.50;51.90;;;;;;7360896;19;20454;-68
2022/11/06 02:18:57;;;;;;;31.38;22.55;;;4.40;52.00;;;;;;7381973;19;20015;-68
2022/11/06 02:21:49;;;;;;;30.13;21.60;;;4.40;52.10;;;;;;7361157;19;20010;-69
2022/11/06 02:24:49;;;;;;;32.92;21.02;;;4.40;52.20;;;;;;7363644;19;20014;-69
2022/11/06 02:27:23;;;;;;;32.38;20.92;;;4.40;52.20;;;;;;7358572;19;20015;-69
2022/11/06 02:29:57;;;;;;;;;;;4.30;52.00;;;;;;7361240;19;20021;-69
2022/11/06 02:32:32;;;;;;;32.60;20.20;;;4.30;52.30;;;;;;7361401;19;19919;-69
2022/11/06 02:35:06;;;;;;;29.05;20.70;;;4.30;52.20;;;;;;7360586;19;20024;-69
2022/11/06 02:37:39;;;;;;;30.95;21.48;;;4.20;52.30;;;;;;7359663;19;20006;-69
2022/11/06 02:40:12;;;;;;;33.58;20.83;;;4.20;52.40;;;;;;7360125;19;20014;-69
2022/11/06 02:42:48;;;;;;;30.63;19.52;;;4.20;52.60;;;;;;7385618;19;20025;-69
2022/11/06 02:45:20;;;;;;;30.77;20.75;;;4.30;52.90;;;;;;7357980;19;20017;-69
2022/11/06 02:47:55;;;;;;;27.45;19.98;;;4.30;52.80;;;;;;7358831;19;20019;-69
2022/11/06 02:50:27;;;;;;;;;;;4.30;52.90;;;;;;7360875;19;20018;-69
2022/11/06 02:52:59;;;;;;;30.70;19.58;;;4.30;52.70;;;;;;7361345;19;19926;-68
2022/11/06 02:55:33;;;;;;;30.98;19.88;;;4.40;52.50;;;;;;7359951;19;20093;-69
2022/11/06 02:58:10;;;;;;;26.85;18.85;;;4.30;52.00;;;;;;7358120;19;20018;-69
2022/11/06 03:00:43;;;;;;;29.40;19.65;;;4.30;51.80;;;;;;7381172;19;20028;-68
2022/11/06 03:03:18;;;;;;;28.25;19.15;;;4.20;51.20;;;;;;7360223;19;20038;-69
2022/11/06 03:05:55;;;;;;;35.05;19.13;;;4.20;51.10;;;;;;7364403;19;20010;-68
2022/11/06 03:08:30;;;;;;;30.55;19.75;;;4.20;50.80;;;;;;7365857;19;20506;-69
2022/11/06 03:11:06;;;;;;;28.50;18.95;;;4.20;50.50;;;;;;7366926;19;20022;-69
2022/11/06 03:13:48;;;;;;;29.02;19.45;;;4.10;50.20;;;;;;7367251;19;20010;-68
2022/11/06 03:16:29;;;;;;;28.95;18.50;;;4.00;49.60;;;;;;7366155;19;20106;-69
2022/11/06 03:19:05;;;;;;;26.77;18.17;;;4.00;49.60;;;;;;7367242;19;20025;-70
2022/11/06 03:21:40;;;;;;;27.30;19.30;;;3.90;49.40;;;;;;7391654;19;20021;-70
2022/11/06 03:24:16;;;;;;;30.52;19.52;;;3.80;49.30;;;;;;7365232;19;20015;-69
2022/11/06 03:26:50;;;;;;;25.98;18.15;;;3.80;49.30;;;;;;7364343;19;20486;-68
2022/11/06 03:29:26;;;;;;;26.65;18.48;;;3.70;49.40;;;;;;7366187;19;20509;-69
2022/11/06 03:32:00;;;;;;;28.17;18.05;;;3.70;49.50;;;;;;7367318;19;20115;-68
2022/11/06 03:34:33;;;;;;;28.27;18.98;;;3.70;49.50;;;;;;7367068;19;20011;-68
2022/11/06 03:37:07;;;;;;;26.08;18.05;;;3.70;50.00;;;;;;7363613;19;20020;-68
2022/11/06 03:39:41;;;;;;;28.92;18.48;;;3.70;50.00;;;;;;7386849;19;20021;-68
2022/11/06 03:42:15;;;;;;;31.13;19.60;;;3.60;49.90;;;;;;7368839;19;20042;-68
2022/11/06 03:44:54;;;;;;;25.87;18.20;;;3.70;50.40;;;;;;7364576;19;20018;-68
2022/11/06 03:47:27;;;;;;;26.80;17.98;;;3.80;51.00;;;;;;7363757;19;20255;-68
2022/11/06 03:50:01;;;;;;;27.77;18.95;;;3.80;50.80;;;;;;7365577;19;20024;-68
2022/11/06 03:52:37;;;;;;;26.30;18.45;;;3.80;50.80;;;;;;7367338;19;20078;-68
2022/11/06 03:55:10;;;;;;;27.30;18.85;;;3.80;50.40;;;;;;7366005;19;20613;-68
2022/11/06 03:57:45;;;;;;;25.52;16.85;;;3.80;50.00;;;;;;7384350;19;20446;-69
2022/11/06 04:00:19;;;;;;;27.85;18.38;;;3.70;49.40;;;;;;7364664;19;20482;-69
2022/11/06 04:03:03;;;;;;;25.17;17.27;;;3.60;49.20;;;;;;7365365;19;20019;-69
2022/11/06 04:05:37;;;;;;;25.45;18.10;;;3.60;49.10;;;;;;7365152;19;20015;-69
2022/11/06 04:16:27;;;;;;;25.70;17.52;;;3.50;49.70;;;;;;7366596;19;20013;-69
2022/11/06 04:18:57;;;;;;;24.52;17.92;;;3.40;49.40;;;;;;7364391;19;20093;-69
2022/11/06 04:21:36;;;;;;;30.33;18.08;;;3.40;49.50;;;;;;7385627;19;20030;-69
2022/11/06 04:27:09;;;;;;;24.02;17.20;;;3.30;49.80;;;;;;7362392;19;20034;-68
2022/11/06 04:29:50;;;;;;;24.70;16.48;;;3.20;50.00;;;;;;7363163;19;20554;-68
2022/11/06 04:32:29;;;;;;;28.73;17.27;;;3.20;50.20;;;;;;7364829;19;20014;-68
2022/11/06 04:35:07;;;;;;;25.77;17.67;;;3.30;50.40;;;;;;7364637;19;20046;-68
2022/11/06 04:37:44;;;;;;;27.17;18.25;;;3.20;50.60;;;;;;7362677;19;20423;-68
2022/11/06 04:40:24;;;;;;;28.13;17.98;;;3.30;50.90;;;;;;7363293;19;20014;-68
2022/11/06 04:43:00;;;;;;;26.13;17.15;;;3.30;50.60;;;;;;7368734;19;20025;-69
2022/11/06 04:45:34;;;;;;;26.75;17.83;;;3.20;50.70;;;;;;7383930;19;20031;-69
2022/11/06 04:48:08;;;;;;;26.88;18.13;;;3.20;50.70;;;;;;7362673;19;20054;-69
2022/11/06 04:50:42;;;;;;;25.02;16.88;;;3.20;50.80;;;;;;7362880;19;20030;-70
2022/11/06 04:53:13;;;;;;;29.03;18.40;;;3.20;50.60;;;;;;7364995;19;20018;-69
2022/11/06 04:55:48;;;;;;;24.50;17.25;;;3.20;50.70;;;;;;7363959;19;20485;-69
2022/11/06 04:58:18;;;;;;;26.25;17.33;;;3.20;50.80;;;;;;7363440;19;20025;-69
2022/11/06 05:00:51;;;;;;;28.85;17.50;;;3.10;50.60;;;;;;7362342;19;20018;-70
2022/11/06 05:03:23;;;;;;;27.60;17.48;;;3.10;50.60;;;;;;7385586;19;20015;-69
2022/11/06 05:05:53;;;;;;;26.75;17.88;;;3.00;50.50;;;;;;7361001;19;20066;-70
2022/11/06 05:08:23;;;;;;;25.05;17.20;;;3.10;50.80;;;;;;7362762;19;20940;-69
2022/11/06 05:10:53;;;;;;;27.67;16.77;;;3.10;51.00;;;;;;7364141;19;20030;-69
2022/11/06 05:13:23;;;;;;;24.13;16.23;;;3.10;51.00;;;;;;7366538;19;20034;-68
2022/11/06 05:15:57;;;;;;;28.08;18.08;;;3.00;50.90;;;;;;7362981;19;20017;-68
2022/11/06 05:18:30;;;;;;;28.70;18.20;;;3.00;51.00;;;;;;7384062;19;20014;-68
2022/11/06 05:23:43;;;;;;;34.15;18.90;;;3.10;51.60;;;;;;7362394;19;20494;-68
2022/11/06 05:26:14;;;;;;;63.55;19.50;;;3.00;51.50;;;;;;7362390;19;20022;-67
2022/11/06 05:28:43;;;;;;;44.40;19.73;;;3.00;51.70;;;;;;7362458;19;20010;-68
2022/11/06 05:31:13;;;;;;;57.25;21.30;;;3.10;52.70;;;;;;7362836;19;20021;-68
2022/11/06 05:33:46;;;;;;;42.10;19.70;;;3.10;52.90;;;;;;7384546;19;20014;-68
2022/11/06 05:36:15;;;;;;;45.38;19.92;;;3.20;53.00;;;;;;7361820;19;20015;-68
2022/11/06 05:38:45;;;;;;;62.13;20.45;;;3.10;52.90;;;;;;7365025;19;20018;-68
2022/11/06 05:41:15;;;;;;;42.75;18.90;;;3.00;52.60;;;;;;7362840;19;20054;-70
2022/11/06 05:43:45;;;;;;;42.90;19.50;;;3.00;53.20;;;;;;7363033;19;20378;-69
2022/11/06 05:46:15;;;;;;;62.92;21.70;;;3.00;53.40;;;;;;7360882;19;20014;-69
2022/11/06 05:49:08;;;;;;;39.78;19.40;;;3.00;53.50;;;;;;7364807;19;20018;-69
2022/11/06 05:51:38;;;;;;;57.83;21.27;;;3.00;53.90;;;;;;7384764;19;20017;-68
2022/11/06 05:54:08;;;;;;;52.65;20.92;;;3.00;54.20;;;;;;7362080;19;20007;-69
2022/11/06 05:56:37;;;;;;;36.47;19.90;;;3.10;54.50;;;;;;7360449;19;20548;-69
2022/11/06 05:59:07;;;;;;;38.88;19.50;;;3.00;54.20;;;;;;7362314;19;20042;-69
2022/11/06 06:01:37;;;;;;;35.53;19.98;;;3.00;54.40;;;;;;7361217;19;20074;-69
2022/11/06 06:04:09;;;;;;;29.25;19.05;;;3.00;54.40;;;;;;7362145;19;20007;-69
2022/11/06 06:06:40;;;;;;;34.08;18.27;;;3.00;54.50;;;;;;7381216;19;20018;-69
2022/11/06 06:09:10;;;;;;;26.45;17.95;;;3.00;54.90;;;;;;7365019;19;20003;-69
2022/11/06 06:11:40;;;;;;;31.45;19.40;;;3.00;54.80;;;;;;7360995;19;20010;-70
2022/11/06 06:14:10;;;;;;;34.13;20.95;;;3.00;55.00;;;;;;7361831;19;20521;-69
2022/11/06 06:16:39;;;;;;;37.47;19.65;;;3.10;55.10;;;;;;7359475;19;20022;-69
2022/11/06 06:19:12;;;;;;;46.45;18.90;;;2.90;54.70;;;;;;7360710;19;20018;-69
2022/11/06 06:21:42;;;;;;;49.10;18.33;;;2.90;54.70;;;;;;7382715;19;20722;-69
2022/11/06 06:24:12;;;;;;;32.00;18.17;;;2.90;54.90;;;;;;7360846;19;20015;-69
2022/11/06 06:26:42;;;;;;;31.80;17.13;;;2.80;54.90;;;;;;7357924;19;20014;-70
2022/11/06 06:29:12;;;;;;;26.80;16.48;;;2.80;55.00;;;;;;7361054;19;20021;-69
2022/11/06 06:31:42;;;;;;;24.45;15.90;;;2.80;55.10;;;;;;7361076;19;20507;-69
2022/11/06 06:34:14;;;;;;;26.52;16.40;;;3.00;55.70;;;;;;7360922;19;20010;-67
2022/11/06 06:36:44;;;;;;;24.98;17.08;;;2.90;55.60;;;;;;7380124;19;20110;-67
2022/11/06 06:39:14;;;;;;;28.23;18.35;;;2.90;55.60;;;;;;7365157;19;20010;-69
2022/11/06 06:41:43;;;;;;;29.88;17.98;;;3.00;55.70;;;;;;7376093;19;20017;-69
2022/11/06 06:44:13;;;;;;;36.15;17.35;;;2.90;55.40;;;;;;7375469;19;20086;-69
2022/11/06 06:46:43;;;;;;;89.88;18.65;;;2.90;55.20;;;;;;7371476;19;20015;-69
2022/11/06 06:49:16;;;;;;;51.25;17.50;;;2.80;54.60;;;;;;7376978;19;20074;-69
2022/11/06 06:51:46;;;;;;;47.45;17.13;;;2.70;54.30;;;;;;7397262;19;20373;-69
2022/11/06 06:54:15;;;;;;;35.00;17.42;;;2.80;54.80;;;;;;7374901;19;20014;-69
2022/11/06 06:56:45;;;;;;;37.33;17.58;;;2.90;55.30;;;;;;7371638;19;20486;-69
2022/11/06 06:59:15;;;;;;;39.13;17.55;;;3.00;55.50;;;;;;7373733;19;20017;-69
2022/11/06 07:01:45;;;;;;;32.58;17.17;;;3.00;55.30;;;;;;7373945;19;20505;-69
2022/11/06 07:04:17;;;;;;;25.00;15.57;;;3.00;55.20;;;;;;7374817;19;20021;-69
2022/11/06 07:06:47;;;;;;;26.85;16.17;;;3.00;55.20;;;;;;7382880;19;20014;-69
2022/11/06 07:09:17;;;;;;;22.17;15.65;;;3.00;55.20;;;;;;7395011;19;20055;-69
2022/11/06 07:11:47;;;;;;;21.83;15.40;;;3.00;55.10;;;;;;7373859;19;20010;-69
2022/11/06 07:14:17;;;;;;;20.90;15.25;;;3.10;55.30;;;;;;7373761;19;20011;-69
2022/11/06 07:16:47;;;;;;;20.35;14.57;;;3.20;55.40;;;;;;7370842;19;20018;-69
2022/11/06 07:19:25;;;;;;;19.75;13.85;;;3.20;55.10;;;;;;7373356;19;20481;-69
2022/11/06 07:21:54;;;;;;;21.52;14.40;;;3.30;54.50;;;;;;7373840;19;20015;-68
2022/11/06 07:24:24;;;;;;;20.20;14.38;;;3.30;54.10;;;;;;7394777;19;20019;-68
2022/11/06 07:26:57;;;;;;;21.17;13.90;;;3.30;53.10;;;;;;7370242;19;20021;-68
2022/11/06 07:29:27;;;;;;;20.85;14.88;;;3.20;51.60;;;;;;7372332;19;20037;-68
2022/11/06 07:31:56;;;;;;;24.85;16.02;;;3.20;52.70;;;;;;7373457;19;20018;-69
2022/11/06 07:34:29;;;;;;;19.55;13.90;;;3.30;51.90;;;;;;7372474;19;20034;-68
2022/11/06 07:36:59;;;;;;;19.88;14.25;;;3.40;52.00;;;;;;7370952;19;20482;-68
2022/11/06 07:39:35;;;;;;;19.00;13.77;;;3.40;51.20;;;;;;7394226;19;20014;-68
2022/11/06 07:42:05;;;;;;;17.40;12.57;;;3.50;51.20;;;;;;7374877;19;20341;-68
2022/11/06 07:44:35;;;;;;;17.23;12.02;;;3.50;49.40;;;;;;7373273;19;20050;-69
2022/11/06 07:47:05;;;;;;;17.80;12.60;;;3.50;48.30;;;;;;7370525;19;20038;-68
2022/11/06 07:49:38;;;;;;;17.05;11.85;;;3.60;48.90;;;;;;7373006;19;20383;-68
2022/11/06 07:52:08;;;;;;;15.38;11.25;;;3.60;47.80;;;;;;7365761;19;20003;-68
2022/11/06 07:54:37;;;;;;;18.67;11.38;;;3.60;47.10;;;;;;7386959;19;20021;-69
2022/11/06 07:57:07;;;;;;;17.83;11.15;;;3.60;45.20;;;;;;7362510;19;20015;-69
2022/11/06 07:59:37;;;;;;;15.68;10.75;;;3.80;45.40;;;;;;7365143;19;20015;-68
2022/11/06 08:02:07;;;;;;;14.75;10.15;;;3.80;45.10;;;;;;7369153;19;20030;-69
2022/11/06 08:04:39;;;;;;;14.77;10.93;;;3.80;43.80;;;;;;7365623;19;20073;-69
2022/11/06 08:07:09;;;;;;;16.33;11.10;;;3.80;42.60;;;;;;7363112;19;20015;-68
2022/11/06 08:09:39;;;;;;;17.63;10.93;;;3.80;42.10;;;;;;7386503;19;20025;-69
2022/11/06 08:12:09;;;;;;;15.27;10.88;;;3.90;42.80;;;;;;7364568;19;20010;-68
2022/11/06 08:14:39;;;;;;;16.10;11.30;;;3.90;41.70;;;;;;7364856;19;20010;-68
2022/11/06 08:17:10;;;;;;;15.40;11.07;;;4.10;41.90;;;;;;7362879;19;20014;-68
2022/11/06 08:19:42;;;;;;;20.63;13.75;;;4.10;41.10;;;;;;7364629;19;20018;-68
2022/11/06 08:22:12;;;;;;;21.33;13.52;;;4.10;41.50;;;;;;7365047;19;20011;-68
2022/11/06 08:24:42;;;;;;;22.05;14.10;;;4.10;41.40;;;;;;7386315;19;20240;-69
2022/11/06 08:27:12;;;;;;;23.67;16.02;;;4.20;41.90;;;;;;7361927;19;20014;-69
2022/11/06 08:29:42;;;;;;;22.08;15.48;;;4.30;41.80;;;;;;7363691;19;20017;-69
2022/11/06 08:32:12;;;;;;;20.23;13.70;;;4.50;41.50;;;;;;7364697;19;20014;-67
2022/11/06 08:34:45;;;;;;;17.52;13.18;;;4.60;40.40;;;;;;7364731;19;20011;-68
2022/11/06 08:37:15;;;;;;;16.98;12.43;;;4.80;38.70;;;;;;7362397;19;20037;-69
2022/11/06 08:39:45;;;;;;;16.70;12.32;;;4.90;38.00;;;;;;7385270;19;20043;-69
2022/11/06 08:42:15;;;;;;;16.33;11.45;;;5.00;34.30;;;;;;7366253;19;20015;-69
2022/11/06 08:44:45;;;;;;;17.10;12.65;;;5.10;33.90;;;;;;7363391;19;20020;-69
2022/11/06 08:47:15;;;;;;;15.23;11.43;;;5.20;32.60;;;;;;7360450;19;20035;-69
2022/11/06 08:49:47;;;;;;;18.70;12.20;;;5.30;30.00;;;;;;7363363;19;20031;-69
2022/11/06 08:52:17;;;;;;;13.85;10.40;;;5.40;28.90;;;;;;7365101;19;20018;-69
2022/11/06 08:54:47;;;;;;;15.90;11.50;;;5.50;28.70;;;;;;7371245;19;20011;-70
2022/11/06 08:57:17;;;;;;;15.50;11.18;;;5.70;27.70;;;;;;7386499;19;20029;-69
2022/11/06 08:59:47;;;;;;;17.67;12.50;;;5.70;24.60;;;;;;7362384;19;20044;-69
2022/11/06 09:02:17;;;;;;;16.48;11.98;;;5.90;25.00;;;;;;7362955;19;20018;-69
2022/11/06 09:04:49;;;;;;;15.02;10.65;;;5.90;23.20;;;;;;7363565;19;20336;-69
2022/11/06 09:07:19;;;;;;;14.40;10.63;;;5.90;21.50;;;;;;7362145;19;20017;-69
2022/11/06 09:09:49;;;;;;;16.05;10.65;;;5.80;21.10;;;;;;7362324;19;20015;-70
2022/11/06 09:12:19;;;;;;;14.73;10.13;;;5.90;21.90;;;;;;7384580;19;20490;-67
2022/11/06 09:14:49;;;;;;;14.93;10.38;;;6.00;21.10;;;;;;7362431;19;20018;-69
2022/11/06 09:17:22;;;;;;;14.88;10.10;;;6.10;22.00;;;;;;7360515;19;20014;-69
2022/11/06 09:19:55;;;;;;;15.50;9.10;;;6.20;19.30;;;;;;7362272;19;20593;-69
2022/11/06 09:22:24;;;;;;;15.00;9.32;;;6.40;19.40;;;;;;7363018;19;20486;-69
2022/11/06 09:24:54;;;;;;;14.10;9.55;;;6.50;17.90;;;;;;7362485;19;20010;-68
2022/11/06 09:27:33;;;;;;;13.68;9.25;;;6.70;18.70;;;;;;7381318;19;20014;-69
2022/11/06 09:30:03;;;;;;;12.75;9.48;;;6.90;17.50;;;;;;7361690;19;20537;-70
2022/11/06 09:32:33;;;;;;;13.30;9.45;;;7.00;16.20;;;;;;7362020;19;20019;-67
2022/11/06 09:35:06;;;;;;;16.63;8.77;;;7.20;14.00;;;;;;7362318;19;20038;-69
2022/11/06 09:37:37;;;;;;;11.95;8.20;;;7.30;13.00;;;;;;7361669;19;20010;-68
2022/11/06 09:40:08;;;;;;;12.02;8.82;;;7.50;11.10;;;;;;7361823;19;20043;-68
2022/11/06 09:42:50;;;;;;;14.52;8.82;;;7.70;11.10;;;;;;7387256;19;20018;-68
2022/11/06 09:45:23;;;;;;;14.15;9.10;;;7.80;10.10;;;;;;7361790;19;20010;-68
2022/11/06 09:48:04;;;;;;;12.80;8.85;;;7.80;9.10;;;;;;7360268;19;20506;-70
2022/11/06 09:50:40;;;;;;;15.38;9.40;;;7.80;8.10;;;;;;7360909;19;20032;-69
2022/11/06 09:53:17;;;;;;;12.48;8.65;;;8.00;8.60;;;;;;7364624;19;20478;-69
2022/11/06 09:55:49;;;;;;;13.82;8.82;;;8.10;6.50;;;;;;7363262;19;20082;-69
2022/11/06 09:58:24;;;;;;;10.70;7.75;;;8.20;6.80;;;;;;7360861;19;20773;-69
2022/11/06 10:00:55;;;;;;;11.82;8.18;;;8.40;7.20;;;;;;7359887;19;20014;-69
2022/11/06 10:03:34;;;;;;;15.07;9.02;;;8.50;4.10;;;;;;7383129;19;20025;-69
2022/11/06 10:06:07;;;;;;;15.75;7.78;;;8.60;2.60;;;;;;7360259;19;20010;-70
2022/11/06 10:08:37;;;;;;;13.90;8.15;;;8.60;1.00;;;;;;7359252;19;20014;-69
2022/11/06 10:11:09;;;;;;;12.05;8.23;;;8.60;1.70;;;;;;7360298;19;20114;-69
2022/11/06 10:13:51;;;;;;;17.05;7.75;;;8.60;1.00;;;;;;7361264;19;20014;-70
2022/11/06 10:16:32;;;;;;;13.50;9.00;;;8.70;1.00;;;;;;7359118;19;20049;-69
2022/11/06 10:19:11;;;;;;;12.68;7.95;;;8.70;1.00;;;;;;7360645;19;20014;-68
2022/11/06 10:21:50;;;;;;;14.23;8.75;;;8.70;1.00;;;;;;7382251;19;20025;-69
2022/11/06 10:24:25;;;;;;;10.57;7.63;;;8.80;1.00;;;;;;7360975;19;20011;-68
2022/11/06 10:26:58;;;;;;;13.65;7.90;;;8.90;1.00;;;;;;7358524;19;20089;-68
2022/11/06 10:30:02;;;;;;;12.27;7.80;;;8.90;1.00;;;;;;7359708;19;20011;-69
2022/11/06 10:32:56;;;;;;;13.15;7.68;;;8.90;1.00;;;;;;7360890;19;20017;-68
2022/11/06 10:35:32;;;;;;;10.85;7.43;;;8.90;1.00;;;;;;7360531;19;20011;-68
2022/11/06 10:38:08;;;;;;;12.45;7.50;;;9.00;1.00;;;;;;7361138;19;20021;-69
2022/11/06 10:40:40;;;;;;;8.88;6.28;;;9.10;1.00;;;;;;7360201;19;20022;-69
2022/11/06 10:43:26;;;;;;;12.38;6.78;;;9.00;1.00;;;;;;7364290;19;20026;-69
2022/11/06 10:46:02;;;;;;;8.48;5.95;;;9.10;1.00;;;;;;7359148;19;20010;-69
2022/11/06 10:48:35;;;;;;;9.65;5.78;;;9.10;1.00;;;;;;7381922;19;20010;-69
2022/11/06 10:51:24;;;;;;;9.68;6.32;;;9.20;1.00;;;;;;7363172;19;20014;-68
2022/11/06 10:54:04;;;;;;;8.95;6.40;;;9.10;1.00;;;;;;7359438;19;20014;-69
2022/11/06 10:56:46;;;;;;;9.27;6.00;;;9.10;1.00;;;;;;7357610;19;20628;-69
2022/11/06 10:59:17;;;;;;;8.77;5.97;;;9.00;1.00;;;;;;7358840;19;20010;-69
2022/11/06 11:01:47;;;;;;;9.00;6.40;;;9.00;1.00;;;;;;7359571;19;20022;-69
2022/11/06 11:04:17;;;;;;;10.18;6.28;;;9.00;1.00;;;;;;7359321;19;20122;-69
2022/11/06 11:06:47;;;;;;;10.13;6.85;;;9.10;1.00;;;;;;7370386;19;20022;-70
2022/11/06 11:09:32;;;;;;;10.00;6.18;;;9.20;1.00;;;;;;7379208;19;20018;-69
2022/11/06 11:12:02;;;;;;;8.68;5.88;;;9.40;1.00;;;;;;7359233;19;20776;-69
2022/11/06 11:14:33;;;;;;;7.72;6.15;;;9.40;1.00;;;;;;7359775;19;20010;-69
2022/11/06 11:17:09;;;;;;;11.27;6.68;;;9.60;1.00;;;;;;7357793;19;20490;-69
2022/11/06 11:19:40;;;;;;;10.43;7.03;;;9.60;1.00;;;;;;7358693;19;20010;-69
2022/11/06 11:22:23;;;;;;;9.55;6.40;;;9.60;1.00;;;;;;7359662;19;20029;-69
2022/11/06 11:25:06;;;;;;;9.93;6.70;;;9.70;1.00;;;;;;7358948;19;20025;-69
2022/11/06 11:27:39;;;;;;;9.63;6.93;;;9.70;1.00;;;;;;7383705;19;20018;-69
2022/11/06 11:30:22;;;;;;;10.35;7.47;;;9.60;1.00;;;;;;7362859;19;20033;-68
2022/11/06 11:32:52;;;;;;;10.45;7.30;;;9.60;1.00;;;;;;7365950;19;20017;-68
2022/11/06 11:35:28;;;;;;;10.73;6.65;;;9.70;1.00;;;;;;7365104;19;20017;-68
2022/11/06 11:38:12;;;;;;;11.07;8.32;;;9.70;1.00;;;;;;7365544;19;20014;-68
2022/11/06 11:40:44;;;;;;;14.45;9.32;;;9.80;1.00;;;;;;7364884;19;20031;-68
2022/11/06 11:43:23;;;;;;;8.70;6.38;;;10.00;1.00;;;;;;7368341;19;20344;-69
2022/11/06 11:46:19;;;;;;;9.07;6.68;;;10.10;1.00;;;;;;7366164;19;20014;-70
2022/11/06 11:48:51;;;;;;;8.55;5.95;;;10.10;1.00;;;;;;7366353;19;20017;-69
2022/11/06 11:51:29;;;;;;;7.68;5.75;;;10.10;1.00;;;;;;7385798;19;20021;-69
2022/11/06 11:54:04;;;;;;;7.53;5.45;;;10.10;1.00;;;;;;7364968;19;20010;-69
2022/11/06 11:56:51;;;;;;;10.23;6.20;;;10.30;1.00;;;;;;7362304;19;20019;-69
2022/11/06 11:59:43;;;;;;;8.80;5.70;;;10.40;1.00;;;;;;7364526;19;20609;-69
2022/11/06 12:02:18;;;;;;;7.60;5.50;;;10.30;1.00;;;;;;7365251;19;20010;-69
2022/11/06 12:04:59;;;;;;;9.80;7.25;;;10.40;1.00;;;;;;7365176;19;20010;-69
2022/11/06 12:07:31;;;;;;;8.90;6.30;;;10.50;1.00;;;;;;7362246;19;20037;-67
2022/11/06 12:10:02;;;;;;;7.82;5.88;;;10.60;1.00;;;;;;7361178;19;20822;-68
2022/11/06 12:12:35;;;;;;;8.70;6.50;;;10.50;1.00;;;;;;7386689;19;20033;-69
2022/11/06 12:15:20;;;;;;;9.38;6.68;;;10.40;1.00;;;;;;7364390;19;20021;-70
2022/11/06 12:17:52;;;;;;;;;;;10.60;1.00;;;;;;7362630;19;20617;-69
2022/11/06 12:20:27;;;;;;;8.07;5.53;;;10.50;1.00;;;;;;7364081;19;19921;-69
2022/11/06 12:22:59;;;;;;;7.22;5.28;;;10.40;1.00;;;;;;7364640;19;20022;-67
2022/11/06 12:25:33;;;;;;;9.00;5.72;;;10.60;1.00;;;;;;7363977;19;20509;-69
2022/11/06 12:28:08;;;;;;;8.38;6.10;;;10.60;1.00;;;;;;7361971;19;20014;-69
2022/11/06 12:30:43;;;;;;;8.35;5.65;;;10.60;1.00;;;;;;7383011;19;20021;-68
2022/11/06 12:33:17;;;;;;;6.25;4.90;;;10.70;1.00;;;;;;7364684;19;20026;-68
2022/11/06 12:35:50;;;;;;;6.38;4.78;;;10.80;1.00;;;;;;7363817;19;20598;-68
2022/11/06 12:38:29;;;;;;;4.53;3.55;;;10.90;1.00;;;;;;7364550;19;20011;-68
2022/11/06 12:41:04;;;;;;;4.55;3.67;;;10.90;1.00;;;;;;7365486;19;20018;-69
2022/11/06 12:43:43;;;;;;;7.13;4.43;;;10.80;1.00;;;;;;7366024;19;20017;-69
2022/11/06 12:46:23;;;;;;;5.57;3.60;;;10.90;1.00;;;;;;7363837;19;20086;-69
2022/11/06 12:49:16;;;;;;;5.07;3.22;;;10.80;1.00;;;;;;7365929;19;20018;-69
2022/11/06 12:51:56;;;;;;;4.65;3.00;;;10.70;1.00;;;;;;7386155;19;20010;-77
2022/11/06 12:54:43;;;;;;;4.00;3.05;;;10.60;1.00;;;;;;7385305;19;20206;-68
2022/11/06 12:57:23;;;;;;;4.88;3.67;;;10.60;1.00;;;;;;7360665;19;20018;-68
2022/11/06 13:00:06;;;;;;;4.40;3.22;;;10.50;1.00;;;;;;7362395;19;20613;-69
2022/11/06 13:02:58;;;;;;;5.30;3.17;;;10.50;1.00;;;;;;7362852;19;20034;-68
2022/11/06 13:05:35;;;;;;;4.15;3.00;;;10.50;1.00;;;;;;7362030;19;20085;-70
2022/11/06 13:08:22;;;;;;;5.07;3.28;;;10.50;1.00;;;;;;7361331;19;20010;-68
2022/11/06 13:11:05;;;;;;;4.18;2.92;;;10.60;1.00;;;;;;7361418;19;20018;-69
2022/11/06 13:13:47;;;;;;;3.58;3.00;;;10.50;1.00;;;;;;7363183;19;20021;-69
2022/11/06 13:16:30;;;;;;;8.20;3.10;;;10.60;1.00;;;;;;7361655;19;20010;-69
2022/11/06 13:19:07;;;;;;;3.63;2.92;;;10.70;1.00;;;;;;7362104;19;20127;-69
2022/11/06 13:21:55;;;;;;;3.38;2.90;;;10.80;1.00;;;;;;7383783;19;20022;-69
2022/11/06 13:24:32;;;;;;;3.35;2.88;;;10.70;1.00;;;;;;7362214;19;20098;-68
2022/11/06 13:27:08;;;;;;;4.35;3.30;;;10.70;1.00;;;;;;7359802;19;20837;-69
2022/11/06 13:29:40;;;;;;;4.30;3.10;;;10.60;1.00;;;;;;7360350;19;20014;-68
2022/11/06 13:32:17;;;;;;;3.88;2.80;;;10.60;1.00;;;;;;7361766;19;20010;-69
2022/11/06 13:34:52;;;;;;;5.00;3.63;;;10.60;1.00;;;;;;7362808;19;20094;-68
2022/11/06 13:37:37;;;;;;;;;;;10.60;1.00;;;;;;7361699;19;20007;-68